createdAt,value
2023-01-12T00:01:07.738Z,7.69
2023-01-12T00:03:34.327Z,7.72
2023-01-12T00:06:12.341Z,7.68
2023-01-12T00:08:38.779Z,7.64
2023-01-12T00:11:05.303Z,7.71
2023-01-12T00:13:32.958Z,7.70
2023-01-12T00:16:19.328Z,7.68
2023-01-12T00:18:46.601Z,7.66
2023-01-12T00:21:14.218Z,7.65
2023-01-12T00:23:42.427Z,7.65
2023-01-12T00:26:10.123Z,7.57
2023-01-12T00:28:37.400Z,7.51
2023-01-12T00:31:11.001Z,7.56
2023-01-12T00:33:39.039Z,7.60
2023-01-12T00:36:08.367Z,7.59
2023-01-12T00:38:36.510Z,7.63
2023-01-12T00:41:10.970Z,7.62
2023-01-12T00:43:56.180Z,7.66
2023-01-12T00:46:32.840Z,7.70
2023-01-12T00:48:59.578Z,7.74
2023-01-12T00:51:26.043Z,7.76
2023-01-12T00:53:52.590Z,7.80
2023-01-12T00:56:19.032Z,7.77
2023-01-12T01:04:13.836Z,7.71
2023-01-12T01:06:40.675Z,7.73
2023-01-12T01:09:07.461Z,7.74
2023-01-12T01:11:35.205Z,7.79
2023-01-12T01:14:02.454Z,7.83
2023-01-12T01:16:29.671Z,7.85
2023-01-12T01:18:57.253Z,7.86
2023-01-12T01:21:23.884Z,7.81
2023-01-12T01:23:50.664Z,7.84
2023-01-12T01:26:20.019Z,7.80
2023-01-12T01:28:47.101Z,7.85
2023-01-12T01:31:20.210Z,7.82
2023-01-12T01:33:47.689Z,7.81
2023-01-12T01:36:14.817Z,7.83
2023-01-12T01:38:44.711Z,7.84
2023-01-12T01:41:22.149Z,7.81
2023-01-12T01:43:53.681Z,7.81
2023-01-12T01:52:31.278Z,7.84
2023-01-12T01:55:22.653Z,7.82
2023-01-12T01:57:54.811Z,7.84
2023-01-12T02:00:22.454Z,7.78
2023-01-12T02:02:49.409Z,7.83
2023-01-12T02:05:20.097Z,7.86
2023-01-12T02:07:49.402Z,7.85
2023-01-12T02:10:16.404Z,7.81
2023-01-12T02:13:01.910Z,7.78
2023-01-12T02:15:49.646Z,7.83
2023-01-12T02:18:39.911Z,7.85
2023-01-12T02:21:30.945Z,7.81
2023-01-12T02:23:57.295Z,7.84
2023-01-12T02:27:03.723Z,7.87
2023-01-12T02:29:30.145Z,7.87
2023-01-12T02:32:11.785Z,7.87
2023-01-12T02:35:00.223Z,7.92
2023-01-12T02:37:37.204Z,7.95
2023-01-12T02:40:03.596Z,7.94
2023-01-12T02:42:44.886Z,7.93
2023-01-12T02:45:30.458Z,7.94
2023-01-12T02:48:25.098Z,7.98
2023-01-12T02:50:59.609Z,7.91
2023-01-12T02:53:45.346Z,7.97
2023-01-12T02:56:16.827Z,7.98
2023-01-12T02:58:49.736Z,7.98
2023-01-12T03:01:19.069Z,8.02
2023-01-12T03:03:48.049Z,8.05
2023-01-12T03:06:17.411Z,8.05
2023-01-12T03:08:46.456Z,8.04
2023-01-12T03:11:19.934Z,8.07
2023-01-12T03:13:54.162Z,8.10
2023-01-12T03:16:32.421Z,8.06
2023-01-12T03:19:02.015Z,8.02
2023-01-12T03:22:03.614Z,8.04
2023-01-12T03:24:35.677Z,8.12
2023-01-12T03:27:06.939Z,8.14
2023-01-12T03:29:43.283Z,8.12
2023-01-12T03:32:09.895Z,8.09
2023-01-12T03:34:37.551Z,8.15
2023-01-12T03:37:22.815Z,8.17
2023-01-12T03:40:01.728Z,8.13
2023-01-12T03:42:35.254Z,8.14
2023-01-12T03:45:28.019Z,8.16
2023-01-12T03:48:10.032Z,8.17
2023-01-12T03:50:45.254Z,8.14
2023-01-12T03:53:15.231Z,8.14
2023-01-12T03:55:45.001Z,8.15
2023-01-12T03:58:11.583Z,8.13
2023-01-12T04:00:38.786Z,8.17
2023-01-12T04:03:11.445Z,8.17
2023-01-12T04:05:39.355Z,8.20
2023-01-12T04:08:06.204Z,8.23
2023-01-12T04:10:32.823Z,8.23
2023-01-12T04:12:59.265Z,8.22
2023-01-12T04:15:26.094Z,8.22
2023-01-12T04:17:52.675Z,8.23
2023-01-12T04:20:20.065Z,8.16
2023-01-12T04:22:46.923Z,8.13
2023-01-12T04:25:16.338Z,8.11
2023-01-12T04:27:51.505Z,8.17
2023-01-12T04:30:22.727Z,8.13
2023-01-12T04:32:49.527Z,8.16
2023-01-12T04:35:17.005Z,8.09
2023-01-12T04:37:44.865Z,8.13
2023-01-12T04:40:13.873Z,8.11
2023-01-12T04:43:01.578Z,8.12
2023-01-12T04:45:32.371Z,8.14
2023-01-12T04:48:07.686Z,8.18
2023-01-12T04:50:34.364Z,8.17
2023-01-12T04:53:05.629Z,8.14
2023-01-12T04:55:33.654Z,8.20
2023-01-12T04:58:00.216Z,8.14
2023-01-12T05:00:26.876Z,8.17
2023-01-12T05:02:59.320Z,8.18
2023-01-12T05:05:26.830Z,8.15
2023-01-12T05:08:11.736Z,8.19
2023-01-12T05:10:38.115Z,8.16
2023-01-12T05:13:04.788Z,8.17
2023-01-12T05:15:31.366Z,8.15
2023-01-12T05:17:57.771Z,8.16
2023-01-12T05:20:24.252Z,8.15
2023-01-12T05:22:52.488Z,8.17
2023-01-12T05:25:19.043Z,8.15
2023-01-12T05:27:45.454Z,8.10
2023-01-12T05:30:12.484Z,8.14
2023-01-12T05:32:40.291Z,8.13
2023-01-12T05:35:08.176Z,8.08
2023-01-12T05:37:34.916Z,8.00
2023-01-12T05:40:01.433Z,8.07
2023-01-12T05:42:47.662Z,8.06
2023-01-12T05:45:14.066Z,7.93
2023-01-12T05:47:40.554Z,7.91
2023-01-12T05:50:07.454Z,7.82
2023-01-12T05:52:33.947Z,7.89
2023-01-12T05:55:00.413Z,7.81
2023-01-12T05:57:30.008Z,7.84
2023-01-12T05:59:56.888Z,7.82
2023-01-12T06:02:23.458Z,7.79
2023-01-12T06:04:50.126Z,7.72
2023-01-12T06:07:16.780Z,7.68
2023-01-12T06:09:43.412Z,7.66
2023-01-12T06:12:31.586Z,7.59
2023-01-12T06:14:58.044Z,7.59
2023-01-12T06:17:24.450Z,7.56
2023-01-12T06:19:51.068Z,7.54
2023-01-12T06:22:19.228Z,7.45
2023-01-12T06:24:48.916Z,7.48
2023-01-12T06:27:16.483Z,7.44
2023-01-12T06:29:43.326Z,7.47
2023-01-12T06:32:09.893Z,7.43
2023-01-12T06:34:36.864Z,7.42
2023-01-12T06:37:04.547Z,7.45
2023-01-12T06:39:31.443Z,7.42
2023-01-12T06:42:16.731Z,7.39
2023-01-12T06:44:43.155Z,7.40
2023-01-12T06:47:09.940Z,7.39
2023-01-12T06:49:36.391Z,7.39
2023-01-12T06:52:02.916Z,7.34
2023-01-12T06:54:30.800Z,7.38
2023-01-12T06:56:57.402Z,7.45
2023-01-12T06:59:23.766Z,7.42
2023-01-12T07:01:50.623Z,7.39
2023-01-12T07:04:17.169Z,7.38
2023-01-12T07:06:43.713Z,7.41
2023-01-12T07:09:10.172Z,7.39
2023-01-12T07:11:36.765Z,7.41
2023-01-12T07:14:03.197Z,7.39
2023-01-12T07:16:29.596Z,7.37
2023-01-12T07:18:56.386Z,7.39
2023-01-12T07:21:22.769Z,7.38
2023-01-12T07:23:49.257Z,7.39
2023-01-12T07:26:15.643Z,7.35
2023-01-12T07:28:42.749Z,7.38
2023-01-12T07:31:09.286Z,7.39
2023-01-12T07:33:37.755Z,7.36
2023-01-12T07:36:04.564Z,7.37
2023-01-12T07:38:31.637Z,7.41
2023-01-12T07:41:00.116Z,7.39
2023-01-12T07:43:26.836Z,7.43
2023-01-12T07:45:56.384Z,7.43
2023-01-12T07:48:23.406Z,7.42
2023-01-12T07:50:49.962Z,7.44
2023-01-12T07:53:16.597Z,7.50
2023-01-12T07:55:45.974Z,7.49
2023-01-12T07:58:12.543Z,7.48
2023-01-12T08:00:39.133Z,7.50
2023-01-12T08:03:10.983Z,7.49
2023-01-12T08:05:38.820Z,7.51
2023-01-12T08:08:06.356Z,7.56
2023-01-12T08:10:32.903Z,7.62
2023-01-12T08:12:59.411Z,7.60
2023-01-12T08:15:28.496Z,7.62
2023-01-12T08:18:03.890Z,7.63
2023-01-12T08:20:34.965Z,7.70
2023-01-12T08:23:16.353Z,7.76
2023-01-12T08:25:48.696Z,7.82
2023-01-12T08:28:24.336Z,7.83
2023-01-12T08:30:51.990Z,7.82
2023-01-12T08:33:19.516Z,7.85
2023-01-12T08:35:46.894Z,7.82
2023-01-12T08:38:14.523Z,7.89
2023-01-12T08:40:59.735Z,7.85
2023-01-12T08:43:44.495Z,7.94
2023-01-12T08:46:11.103Z,7.92
2023-01-12T08:48:38.128Z,7.99
2023-01-12T08:51:06.324Z,7.99
2023-01-12T08:53:32.892Z,8.06
2023-01-12T08:55:59.636Z,8.08
2023-01-12T08:58:26.079Z,8.09
2023-01-12T09:00:52.579Z,8.12
2023-01-12T09:03:19.049Z,8.12
2023-01-12T09:05:45.972Z,8.18
2023-01-12T09:08:12.357Z,8.17
2023-01-12T09:10:38.867Z,8.19
2023-01-12T09:13:05.420Z,8.20
2023-01-12T09:15:32.111Z,8.18
2023-01-12T09:17:58.521Z,8.23
2023-01-12T09:20:25.072Z,8.23
2023-01-12T09:22:51.452Z,8.27
2023-01-12T09:25:18.031Z,8.30
2023-01-12T09:27:44.443Z,8.33
2023-01-12T09:30:11.590Z,8.39
2023-01-12T09:32:37.995Z,8.42
2023-01-12T09:35:04.961Z,8.42
2023-01-12T09:37:31.440Z,8.43
2023-01-12T09:40:00.385Z,8.43
2023-01-12T09:42:45.378Z,8.46
2023-01-12T09:45:38.823Z,8.44
2023-01-12T09:48:08.406Z,8.47
2023-01-12T09:50:39.406Z,8.47
2023-01-12T09:53:38.498Z,8.46
2023-01-12T09:56:07.959Z,8.51
2023-01-12T09:58:37.378Z,8.55
2023-01-12T10:01:20.518Z,8.55
2023-01-12T10:03:55.416Z,8.55
2023-01-12T10:06:22.113Z,8.62
2023-01-12T10:08:57.486Z,8.62
2023-01-12T10:11:47.565Z,8.60
2023-01-12T10:14:32.289Z,8.68
2023-01-12T10:17:18.739Z,8.69
2023-01-12T10:19:51.355Z,8.72
2023-01-12T10:22:37.785Z,8.70
2023-01-12T10:25:23.767Z,8.71
2023-01-12T10:27:53.508Z,8.72
2023-01-12T10:30:39.174Z,8.68
2023-01-12T10:33:21.553Z,8.70
2023-01-12T10:36:05.894Z,8.76
2023-01-12T10:38:39.523Z,8.77
2023-01-12T10:41:17.658Z,8.77
2023-01-12T10:43:46.752Z,8.76
2023-01-12T10:46:21.452Z,8.78
2023-01-12T10:48:56.064Z,8.83
2023-01-12T10:51:28.792Z,8.87
2023-01-12T10:54:17.697Z,8.87
2023-01-12T10:56:55.525Z,8.90
2023-01-12T10:59:26.197Z,8.95
2023-01-12T11:02:12.133Z,8.97
2023-01-12T11:04:51.456Z,8.98
2023-01-12T11:07:28.717Z,9.04
2023-01-12T11:10:00.150Z,9.07
2023-01-12T11:12:40.021Z,9.06
2023-01-12T11:15:09.475Z,9.09
2023-01-12T11:17:49.534Z,9.13
2023-01-12T11:20:23.505Z,9.10
2023-01-12T11:22:54.864Z,9.09
2023-01-12T11:25:24.464Z,9.14
2023-01-12T11:28:06.465Z,9.19
2023-01-12T11:30:44.300Z,9.22
2023-01-12T11:33:19.834Z,9.25
2023-01-12T11:36:04.464Z,9.25
2023-01-12T11:38:41.013Z,9.23
2023-01-12T11:41:19.057Z,9.29
2023-01-12T11:44:03.302Z,9.34
2023-01-12T11:46:38.975Z,9.32
2023-01-12T11:49:21.309Z,9.36
2023-01-12T11:51:51.068Z,9.37
2023-01-12T11:54:19.110Z,9.41
2023-01-12T11:56:48.156Z,9.42
2023-01-12T11:59:45.874Z,9.46
2023-01-12T12:02:39.151Z,9.48
2023-01-12T12:05:20.902Z,9.47
2023-01-12T12:08:18.276Z,9.48
2023-01-12T12:10:59.929Z,9.48
2023-01-12T12:13:38.395Z,9.51
2023-01-12T12:16:17.838Z,9.51
2023-01-12T12:18:49.956Z,9.47
2023-01-12T12:21:25.594Z,9.45
2023-01-12T12:24:29.545Z,9.44
2023-01-12T12:27:14.913Z,9.42
2023-01-12T12:29:50.348Z,9.40
2023-01-12T12:32:48.897Z,9.36
2023-01-12T12:35:41.412Z,9.36
2023-01-12T12:38:20.725Z,9.38
2023-01-12T12:41:24.027Z,9.38
2023-01-12T12:44:35.479Z,9.40
2023-01-12T12:47:42.055Z,9.39
2023-01-12T12:50:42.914Z,9.39
2023-01-12T12:53:21.491Z,9.41
2023-01-12T12:55:51.213Z,9.37
2023-01-12T12:58:20.661Z,9.38
2023-01-12T13:00:50.687Z,9.38
2023-01-12T13:03:41.970Z,9.37
2023-01-12T13:06:15.157Z,9.36
2023-01-12T13:08:43.217Z,9.34
2023-01-12T13:11:10.455Z,9.33
2023-01-12T13:13:38.611Z,9.34
2023-01-12T13:16:20.303Z,9.34
2023-01-12T13:18:52.853Z,9.29
2023-01-12T13:21:28.653Z,9.29
2023-01-12T13:24:10.295Z,9.27
2023-01-12T13:26:39.284Z,9.24
2023-01-12T13:29:24.348Z,9.27
2023-01-12T13:31:52.387Z,9.23
2023-01-12T13:34:37.211Z,9.21
2023-01-12T13:37:23.599Z,9.16
2023-01-12T13:40:03.495Z,9.21
2023-01-12T13:42:49.562Z,9.22
2023-01-12T13:45:21.023Z,9.24
2023-01-12T13:47:50.101Z,9.28
2023-01-12T13:50:19.742Z,9.26
2023-01-12T13:52:59.893Z,9.26
2023-01-12T13:55:29.797Z,9.28
2023-01-12T13:58:16.841Z,9.36
2023-01-12T14:00:53.190Z,9.40
2023-01-12T14:03:36.233Z,9.37
2023-01-12T14:06:10.100Z,9.37
2023-01-12T14:08:57.428Z,9.37
2023-01-12T14:11:33.141Z,9.43
2023-01-12T14:14:46.778Z,9.41
2023-01-12T14:17:48.119Z,9.45
2023-01-12T14:20:18.937Z,9.42
2023-01-12T14:22:46.008Z,9.49
2023-01-12T14:25:25.438Z,9.48
2023-01-12T14:27:54.565Z,9.52
2023-01-12T14:30:23.919Z,9.48
2023-01-12T14:32:51.239Z,9.45
2023-01-12T14:35:21.024Z,9.49
2023-01-12T14:37:54.286Z,9.48
2023-01-12T14:40:29.035Z,9.49
2023-01-12T14:43:16.544Z,9.42
2023-01-12T14:46:25.076Z,9.41
2023-01-12T14:49:04.134Z,9.45
2023-01-12T14:51:35.978Z,9.43
2023-01-12T14:54:06.001Z,9.46
2023-01-12T14:56:41.658Z,9.47
2023-01-12T14:59:19.212Z,9.52
2023-01-12T15:01:46.260Z,9.54
2023-01-12T15:04:25.003Z,9.51
2023-01-12T15:07:04.317Z,9.49
2023-01-12T15:09:33.669Z,9.53
2023-01-12T15:12:29.328Z,9.48
2023-01-12T15:15:15.156Z,9.53
2023-01-12T15:18:00.381Z,9.57
2023-01-12T15:20:53.235Z,9.53
2023-01-12T15:23:53.709Z,9.61
2023-01-12T15:26:21.309Z,9.64
2023-01-12T15:28:48.693Z,9.61
2023-01-12T15:31:21.832Z,9.55
2023-01-12T15:33:48.516Z,9.65
2023-01-12T15:36:15.011Z,9.70
2023-01-12T15:38:41.606Z,9.72
2023-01-12T15:41:41.201Z,9.70
2023-01-12T15:44:15.759Z,9.67
2023-01-12T15:46:43.091Z,9.69
2023-01-12T15:49:11.350Z,9.68
2023-01-12T15:51:37.986Z,9.66
2023-01-12T15:54:05.547Z,9.72
2023-01-12T15:56:31.912Z,9.73
2023-01-12T15:58:58.556Z,9.77
2023-01-12T16:01:30.119Z,9.73
2023-01-12T16:04:18.332Z,9.72
2023-01-12T16:06:43.115Z,9.77
2023-01-12T16:09:09.653Z,9.80
2023-01-12T16:11:36.161Z,9.72
2023-01-12T16:14:03.044Z,9.72
2023-01-12T16:16:29.919Z,9.72
2023-01-12T16:18:58.527Z,9.76
2023-01-12T16:21:27.078Z,9.73
2023-01-12T16:23:57.496Z,9.79
2023-01-12T16:26:26.444Z,9.79
2023-01-12T16:28:52.916Z,9.73
2023-01-12T16:31:19.869Z,9.76
2023-01-12T16:33:46.371Z,9.81
2023-01-12T16:36:14.499Z,9.75
2023-01-12T16:38:41.278Z,9.75
2023-01-12T16:41:14.014Z,9.71
2023-01-12T16:43:40.793Z,9.71
2023-01-12T16:46:07.626Z,9.71
2023-01-12T16:48:34.745Z,9.69
2023-01-12T16:51:01.594Z,9.70
2023-01-12T16:53:28.074Z,9.77
2023-01-12T16:55:54.633Z,9.74
2023-01-12T16:58:21.197Z,9.71
2023-01-12T17:00:47.999Z,9.73
2023-01-12T17:03:14.720Z,9.69
2023-01-12T17:05:42.340Z,9.70
2023-01-12T17:08:09.401Z,9.74
2023-01-12T17:10:36.602Z,9.75
2023-01-12T17:13:03.355Z,9.77
2023-01-12T17:15:30.521Z,9.70
2023-01-12T17:17:57.345Z,9.73
2023-01-12T17:20:24.061Z,9.76
2023-01-12T17:22:50.680Z,9.71
2023-01-12T17:25:17.420Z,9.73
2023-01-12T17:27:44.063Z,9.76
2023-01-12T17:30:11.363Z,9.76
2023-01-12T17:32:38.162Z,9.72
2023-01-12T17:35:07.799Z,9.79
2023-01-12T17:37:35.518Z,9.82
2023-01-12T17:40:02.517Z,9.81
2023-01-12T17:42:47.600Z,9.83
2023-01-12T17:45:14.096Z,9.80
2023-01-12T17:47:40.716Z,9.79
2023-01-12T17:50:07.767Z,9.81
2023-01-12T17:52:34.527Z,9.83
2023-01-12T17:55:01.268Z,9.76
2023-01-12T17:57:27.734Z,9.80
2023-01-12T17:59:54.178Z,9.84
2023-01-12T18:02:20.952Z,9.86
2023-01-12T18:04:47.559Z,9.85
2023-01-12T18:07:14.289Z,9.86
2023-01-12T18:09:41.844Z,9.80
2023-01-12T18:12:10.663Z,9.84
2023-01-12T18:14:37.472Z,9.80
2023-01-12T18:17:03.954Z,9.83
2023-01-12T18:19:30.654Z,9.83
2023-01-12T18:21:57.127Z,9.80
2023-01-12T18:24:23.737Z,9.84
2023-01-12T18:26:50.878Z,9.84
2023-01-12T18:29:17.505Z,9.87
2023-01-12T18:31:47.174Z,9.87
2023-01-12T18:34:16.337Z,9.82
2023-01-12T18:36:43.343Z,9.89
2023-01-12T18:39:16.060Z,9.83
2023-01-12T18:42:01.141Z,9.77
2023-01-12T18:44:27.642Z,9.82
2023-01-12T18:47:15.703Z,9.82
2023-01-12T18:49:47.650Z,9.83
2023-01-12T18:52:33.269Z,9.84
2023-01-12T18:54:59.843Z,9.85
2023-01-12T18:57:28.921Z,9.86
2023-01-12T19:00:06.129Z,9.85
2023-01-12T19:02:32.531Z,9.85
2023-01-12T19:05:16.246Z,9.77
2023-01-12T19:07:52.735Z,9.76
2023-01-12T19:10:19.164Z,9.83
2023-01-12T19:12:45.963Z,9.79
2023-01-12T19:15:31.926Z,9.84
2023-01-12T19:17:58.499Z,9.85
2023-01-12T19:20:29.056Z,9.83
2023-01-12T19:23:14.779Z,9.88
2023-01-12T19:25:59.664Z,9.83
2023-01-12T19:28:40.523Z,9.83
2023-01-12T19:31:11.306Z,9.83
2023-01-12T19:33:38.833Z,9.87
2023-01-12T19:36:07.920Z,9.86
2023-01-12T19:38:35.929Z,9.83
2023-01-12T19:41:30.080Z,9.79
2023-01-12T19:43:56.619Z,9.83
2023-01-12T19:46:23.129Z,9.84
2023-01-12T19:48:49.645Z,9.88
2023-01-12T19:51:16.138Z,9.88
2023-01-12T19:53:42.707Z,9.93
2023-01-12T19:56:11.061Z,9.92
2023-01-12T19:58:38.338Z,9.87
2023-01-12T20:01:05.005Z,9.82
2023-01-12T20:03:31.755Z,9.87
2023-01-12T20:05:58.380Z,9.87
2023-01-12T20:08:25.466Z,9.92
2023-01-12T20:10:57.557Z,9.90
2023-01-12T20:13:24.756Z,9.93
2023-01-12T20:15:51.251Z,9.91
2023-01-12T20:18:18.777Z,9.90
2023-01-12T20:20:45.980Z,9.89
2023-01-12T20:23:14.875Z,9.84
2023-01-12T20:25:42.554Z,9.74
2023-01-12T20:28:12.210Z,9.72
2023-01-12T20:30:40.812Z,9.70
2023-01-12T20:33:07.571Z,9.68
2023-01-12T20:35:35.034Z,9.66
2023-01-12T20:38:04.049Z,9.69
2023-01-12T20:40:30.567Z,9.67
2023-01-12T20:42:57.199Z,9.65
2023-01-12T20:45:24.056Z,9.63
2023-01-12T20:47:50.606Z,9.56
2023-01-12T20:50:18.696Z,9.60
2023-01-12T20:52:47.926Z,9.50
2023-01-12T20:55:15.185Z,9.53
2023-01-12T20:57:42.804Z,9.54
2023-01-12T21:00:10.822Z,9.53
2023-01-12T21:02:37.772Z,9.53
2023-01-12T21:05:04.910Z,9.50
2023-01-12T21:07:31.490Z,9.53
2023-01-12T21:09:57.912Z,9.53
2023-01-12T21:12:27.258Z,9.50
2023-01-12T21:14:54.217Z,9.46
2023-01-12T21:17:21.499Z,9.51
2023-01-12T21:19:47.943Z,9.53
2023-01-12T21:22:14.467Z,9.47
2023-01-12T21:24:40.917Z,9.57
2023-01-12T21:27:07.310Z,9.54
2023-01-12T21:29:34.166Z,9.56
2023-01-12T21:32:00.746Z,9.60
2023-01-12T21:34:27.606Z,9.57
2023-01-12T21:36:54.099Z,9.58
2023-01-12T21:39:20.635Z,9.55
2023-01-12T21:42:05.524Z,9.59
2023-01-12T21:44:32.226Z,9.61
2023-01-12T21:46:58.626Z,9.65
2023-01-12T21:49:25.194Z,9.67
2023-01-12T21:51:51.631Z,9.68
2023-01-12T21:54:18.126Z,9.70
2023-01-12T21:56:44.797Z,9.71
2023-01-12T21:59:12.243Z,9.73
2023-01-12T22:01:39.053Z,9.70
2023-01-12T22:04:05.593Z,9.71
2023-01-12T22:06:32.167Z,9.66
2023-01-12T22:08:59.264Z,9.68
2023-01-12T22:11:25.849Z,9.74
2023-01-12T22:13:52.313Z,9.73
2023-01-12T22:16:18.864Z,9.77
2023-01-12T22:18:49.112Z,9.81
2023-01-12T22:21:17.037Z,9.79
2023-01-12T22:23:43.694Z,9.73
2023-01-12T22:26:12.271Z,9.73
2023-01-12T22:28:41.354Z,9.68
2023-01-12T22:31:11.816Z,9.73
2023-01-12T22:33:39.090Z,9.73
2023-01-12T22:36:06.991Z,9.80
2023-01-12T22:38:33.854Z,9.74
2023-01-12T22:41:08.736Z,9.71
2023-01-12T22:43:40.514Z,9.74
2023-01-12T22:46:18.472Z,9.72
2023-01-12T22:48:48.305Z,9.74
2023-01-12T22:51:15.000Z,9.73
2023-01-12T22:53:41.444Z,9.75
2023-01-12T22:56:09.540Z,9.81
2023-01-12T22:58:35.967Z,9.83
2023-01-12T23:01:08.132Z,9.83
2023-01-12T23:03:36.585Z,9.86
2023-01-12T23:06:04.459Z,9.80
2023-01-12T23:08:31.131Z,9.77
2023-01-12T23:11:13.939Z,9.80
2023-01-12T23:13:42.093Z,9.84
2023-01-12T23:16:10.237Z,9.78
2023-01-12T23:18:39.007Z,9.81
2023-01-12T23:21:14.063Z,9.83
2023-01-12T23:23:43.944Z,9.85
2023-01-12T23:26:13.180Z,9.84
2023-01-12T23:28:42.917Z,9.90
2023-01-12T23:31:12.483Z,9.87
2023-01-12T23:33:40.098Z,9.84
2023-01-12T23:36:10.182Z,9.90
2023-01-12T23:38:36.690Z,9.87
2023-01-12T23:41:13.182Z,9.95
2023-01-12T23:43:39.752Z,9.97
2023-01-12T23:46:07.178Z,9.91
2023-01-12T23:48:34.247Z,9.95
2023-01-12T23:51:01.447Z,9.90
2023-01-12T23:53:29.179Z,9.90
2023-01-12T23:55:56.911Z,9.95
2023-01-12T23:58:24.819Z,9.99
